sensor_id;sensor_type;location;lat;lon;timestamp;temperature;humidity
16838;DHT22;19510;54.486;9.046;2022-12-07T07:03:36;2.90;99.90
16838;DHT22;19510;54.486;9.046;2022-12-07T07:06:01;2.90;99.90
16838;DHT22;19510;54.486;9.046;2022-12-07T07:08:27;2.90;99.90
16838;DHT22;19510;54.486;9.046;2022-12-07T07:10:53;2.90;99.90
16838;DHT22;19510;54.486;9.046;2022-12-07T07:13:18;2.80;99.90
16838;DHT22;19510;54.486;9.046;2022-12-07T07:15:44;2.80;99.90
16838;DHT22;19510;54.486;9.046;2022-12-07T07:18:11;2.80;99.90
16838;DHT22;19510;54.486;9.046;2022-12-07T07:20:37;2.80;99.90
16838;DHT22;19510;54.486;9.046;2022-12-07T07:23:03;2.80;99.90
16838;DHT22;19510;54.486;9.046;2022-12-07T07:25:29;2.80;99.90
16838;DHT22;19510;54.486;9.046;2022-12-07T07:27:55;2.90;99.90
16838;DHT22;19510;54.486;9.046;2022-12-07T07:30:21;2.80;99.90
16838;DHT22;19510;54.486;9.046;2022-12-07T07:32:50;2.90;99.90
16838;DHT22;19510;54.486;9.046;2022-12-07T07:35:20;2.90;99.90
16838;DHT22;19510;54.486;9.046;2022-12-07T07:37:51;2.90;99.90
16838;DHT22;19510;54.486;9.046;2022-12-07T07:40:16;2.90;99.90
16838;DHT22;19510;54.486;9.046;2022-12-07T07:42:42;3.00;99.90
16838;DHT22;19510;54.486;9.046;2022-12-07T07:45:08;3.00;99.90
16838;DHT22;19510;54.486;9.046;2022-12-07T07:47:39;3.00;99.90
16838;DHT22;19510;54.486;9.046;2022-12-07T07:50:05;3.00;99.90
16838;DHT22;19510;54.486;9.046;2022-12-07T07:52:31;3.00;99.90
16838;DHT22;19510;54.486;9.046;2022-12-07T07:54:57;3.00;99.90
16838;DHT22;19510;54.486;9.046;2022-12-07T07:57:23;3.00;99.90
16838;DHT22;19510;54.486;9.046;2022-12-07T07:59:48;3.00;99.90
16838;DHT22;19510;54.486;9.046;2022-12-07T08:02:18;3.10;99.90
16838;DHT22;19510;54.486;9.046;2022-12-07T08:04:45;3.10;99.90
16838;DHT22;19510;54.486;9.046;2022-12-07T08:07:12;3.10;99.90
16838;DHT22;19510;54.486;9.046;2022-12-07T08:09:38;3.10;99.90
16838;DHT22;19510;54.486;9.046;2022-12-07T08:12:05;3.10;99.90
16838;DHT22;19510;54.486;9.046;2022-12-07T08:14:31;3.10;99.90
16838;DHT22;19510;54.486;9.046;2022-12-07T08:16:57;3.10;99.90
16838;DHT22;19510;54.486;9.046;2022-12-07T08:19:23;3.20;99.90
16838;DHT22;19510;54.486;9.046;2022-12-07T08:21:48;3.20;99.90
16838;DHT22;19510;54.486;9.046;2022-12-07T08:24:14;3.30;99.90
16838;DHT22;19510;54.486;9.046;2022-12-07T08:26:40;3.20;99.90
16838;DHT22;19510;54.486;9.046;2022-12-07T08:29:06;3.20;99.90
16838;DHT22;19510;54.486;9.046;2022-12-07T08:31:32;3.20;99.90
16838;DHT22;19510;54.486;9.046;2022-12-07T08:33:58;3.30;99.90
16838;DHT22;19510;54.486;9.046;2022-12-07T08:36:24;3.30;99.90
16838;DHT22;19510;54.486;9.046;2022-12-07T08:38:50;3.30;99.90
16838;DHT22;19510;54.486;9.046;2022-12-07T08:41:16;3.30;99.90
16838;DHT22;19510;54.486;9.046;2022-12-07T08:43:42;3.40;99.90
16838;DHT22;19510;54.486;9.046;2022-12-07T08:48:54;3.40;99.90
16838;DHT22;19510;54.486;9.046;2022-12-07T08:51:22;3.40;99.90
16838;DHT22;19510;54.486;9.046;2022-12-07T08:53:50;3.40;99.90
16838;DHT22;19510;54.486;9.046;2022-12-07T08:56:16;3.50;99.90
16838;DHT22;19510;54.486;9.046;2022-12-07T08:58:44;3.40;99.90
16838;DHT22;19510;54.486;9.046;2022-12-07T09:01:10;3.40;99.90
16838;DHT22;19510;54.486;9.046;2022-12-07T09:03:36;3.50;99.90
16838;DHT22;19510;54.486;9.046;2022-12-07T09:06:02;3.50;99.90
16838;DHT22;19510;54.486;9.046;2022-12-07T09:08:33;3.50;99.90
16838;DHT22;19510;54.486;9.046;2022-12-07T09:10:59;3.50;99.90
16838;DHT22;19510;54.486;9.046;2022-12-07T09:13:25;3.50;99.90
16838;DHT22;19510;54.486;9.046;2022-12-07T09:15:50;3.50;99.90
16838;DHT22;19510;54.486;9.046;2022-12-07T09:18:16;3.60;99.90
16838;DHT22;19510;54.486;9.046;2022-12-07T09:20:42;3.50;99.90
16838;DHT22;19510;54.486;9.046;2022-12-07T09:23:07;3.60;99.90
16838;DHT22;19510;54.486;9.046;2022-12-07T09:25:34;3.60;99.90
16838;DHT22;19510;54.486;9.046;2022-12-07T09:28:18;3.60;99.90
16838;DHT22;19510;54.486;9.046;2022-12-07T09:30:47;3.60;99.90
16838;DHT22;19510;54.486;9.046;2022-12-07T09:33:13;3.60;99.90
16838;DHT22;19510;54.486;9.046;2022-12-07T09:35:47;3.70;99.90
16838;DHT22;19510;54.486;9.046;2022-12-07T09:38:13;3.70;99.90
16838;DHT22;19510;54.486;9.046;2022-12-07T09:40:39;3.60;99.90
16838;DHT22;19510;54.486;9.046;2022-12-07T09:43:12;3.70;99.90
16838;DHT22;19510;54.486;9.046;2022-12-07T09:45:39;3.70;99.90
16838;DHT22;19510;54.486;9.046;2022-12-07T09:48:05;3.60;99.90
16838;DHT22;19510;54.486;9.046;2022-12-07T09:50:31;3.70;99.90
16838;DHT22;19510;54.486;9.046;2022-12-07T09:53:09;3.70;99.90
16838;DHT22;19510;54.486;9.046;2022-12-07T09:55:38;3.70;99.90
16838;DHT22;19510;54.486;9.046;2022-12-07T09:58:06;3.60;99.90
16838;DHT22;19510;54.486;9.046;2022-12-07T10:00:31;3.60;99.90
16838;DHT22;19510;54.486;9.046;2022-12-07T10:03:02;3.60;99.90
16838;DHT22;19510;54.486;9.046;2022-12-07T10:05:32;3.60;99.90
16838;DHT22;19510;54.486;9.046;2022-12-07T10:08:00;3.70;99.90
16838;DHT22;19510;54.486;9.046;2022-12-07T10:10:35;3.70;99.90
16838;DHT22;19510;54.486;9.046;2022-12-07T10:13:05;3.70;99.90
16838;DHT22;19510;54.486;9.046;2022-12-07T10:15:58;3.80;99.90
16838;DHT22;19510;54.486;9.046;2022-12-07T10:21:11;3.80;99.90
16838;DHT22;19510;54.486;9.046;2022-12-07T10:23:40;3.80;99.90
16838;DHT22;19510;54.486;9.046;2022-12-07T10:28:50;3.90;99.90
16838;DHT22;19510;54.486;9.046;2022-12-07T10:31:18;3.80;99.90
16838;DHT22;19510;54.486;9.046;2022-12-07T10:33:53;3.90;99.90
16838;DHT22;19510;54.486;9.046;2022-12-07T10:36:21;3.90;99.90
16838;DHT22;19510;54.486;9.046;2022-12-07T10:39:01;3.90;99.90
16838;DHT22;19510;54.486;9.046;2022-12-07T10:41:27;4.00;99.90
16838;DHT22;19510;54.486;9.046;2022-12-07T10:43:55;4.00;99.90
16838;DHT22;19510;54.486;9.046;2022-12-07T10:51:46;4.00;99.90
16838;DHT22;19510;54.486;9.046;2022-12-07T10:57:27;4.00;99.90
16838;DHT22;19510;54.486;9.046;2022-12-07T11:06:10;4.10;99.90
16838;DHT22;19510;54.486;9.046;2022-12-07T11:09:10;4.20;99.90
16838;DHT22;19510;54.486;9.046;2022-12-07T11:12:03;4.20;99.90
16838;DHT22;19510;54.486;9.046;2022-12-07T11:17:58;4.30;99.90
16838;DHT22;19510;54.486;9.046;2022-12-07T11:26:22;4.40;99.90
16838;DHT22;19510;54.486;9.046;2022-12-07T11:34:26;4.50;99.90
16838;DHT22;19510;54.486;9.046;2022-12-07T11:37:12;4.40;99.90
16838;DHT22;19510;54.486;9.046;2022-12-07T11:39:49;4.40;99.90
16838;DHT22;19510;54.486;9.046;2022-12-07T11:42:16;4.40;99.90
16838;DHT22;19510;54.486;9.046;2022-12-07T11:44:55;4.40;99.90
16838;DHT22;19510;54.486;9.046;2022-12-07T11:47:25;4.40;99.90
16838;DHT22;19510;54.486;9.046;2022-12-07T11:50:03;4.30;99.90
16838;DHT22;19510;54.486;9.046;2022-12-07T11:53:03;4.30;99.90
16838;DHT22;19510;54.486;9.046;2022-12-07T11:58:23;4.70;99.90
16838;DHT22;19510;54.486;9.046;2022-12-07T12:04:06;4.50;99.90
16838;DHT22;19510;54.486;9.046;2022-12-07T12:06:37;4.40;99.90
16838;DHT22;19510;54.486;9.046;2022-12-07T12:09:21;4.40;99.90
16838;DHT22;19510;54.486;9.046;2022-12-07T12:20:20;4.30;99.90
16838;DHT22;19510;54.486;9.046;2022-12-07T12:23:12;4.40;99.90
16838;DHT22;19510;54.486;9.046;2022-12-07T12:25:47;4.40;99.90
16838;DHT22;19510;54.486;9.046;2022-12-07T12:28:37;4.30;99.90
16838;DHT22;19510;54.486;9.046;2022-12-07T12:33:54;4.40;99.90
16838;DHT22;19510;54.486;9.046;2022-12-07T12:36:44;4.40;99.90
16838;DHT22;19510;54.486;9.046;2022-12-07T12:39:14;4.40;99.90
16838;DHT22;19510;54.486;9.046;2022-12-07T12:46:58;4.20;99.90
16838;DHT22;19510;54.486;9.046;2022-12-07T12:52:01;4.30;99.90
16838;DHT22;19510;54.486;9.046;2022-12-07T12:54:35;4.20;99.90
16838;DHT22;19510;54.486;9.046;2022-12-07T12:57:26;4.20;99.90
16838;DHT22;19510;54.486;9.046;2022-12-07T13:02:36;4.10;99.90
16838;DHT22;19510;54.486;9.046;2022-12-07T13:10:39;4.20;99.90
16838;DHT22;19510;54.486;9.046;2022-12-07T13:15:42;4.30;99.90
16838;DHT22;19510;54.486;9.046;2022-12-07T13:28:52;4.00;99.90
16838;DHT22;19510;54.486;9.046;2022-12-07T13:36:57;3.90;99.90
16838;DHT22;19510;54.486;9.046;2022-12-07T13:39:26;4.00;99.90
16838;DHT22;19510;54.486;9.046;2022-12-07T13:41:55;3.90;99.90
16838;DHT22;19510;54.486;9.046;2022-12-07T13:44:26;3.80;99.90
16838;DHT22;19510;54.486;9.046;2022-12-07T13:49:53;3.80;99.90
16838;DHT22;19510;54.486;9.046;2022-12-07T13:52:24;3.70;99.90
16838;DHT22;19510;54.486;9.046;2022-12-07T13:54:57;3.70;99.90
16838;DHT22;19510;54.486;9.046;2022-12-07T13:57:25;3.70;99.90
16838;DHT22;19510;54.486;9.046;2022-12-07T13:59:52;3.70;99.90
16838;DHT22;19510;54.486;9.046;2022-12-07T14:04:51;3.50;99.90
16838;DHT22;19510;54.486;9.046;2022-12-07T14:10:01;3.50;99.90
16838;DHT22;19510;54.486;9.046;2022-12-07T14:12:31;3.50;99.90
16838;DHT22;19510;54.486;9.046;2022-12-07T14:14:59;3.50;99.90
16838;DHT22;19510;54.486;9.046;2022-12-07T14:17:26;3.50;99.90
16838;DHT22;19510;54.486;9.046;2022-12-07T14:20:00;3.40;99.90
16838;DHT22;19510;54.486;9.046;2022-12-07T14:22:38;3.40;99.90
16838;DHT22;19510;54.486;9.046;2022-12-07T14:27:46;3.40;99.90
16838;DHT22;19510;54.486;9.046;2022-12-07T14:30:17;3.40;99.90
16838;DHT22;19510;54.486;9.046;2022-12-07T14:32:44;3.40;99.90
16838;DHT22;19510;54.486;9.046;2022-12-07T14:35:15;3.30;99.90
16838;DHT22;19510;54.486;9.046;2022-12-07T14:37:42;3.30;99.90
16838;DHT22;19510;54.486;9.046;2022-12-07T14:40:19;3.30;99.90
16838;DHT22;19510;54.486;9.046;2022-12-07T14:42:47;3.30;99.90
16838;DHT22;19510;54.486;9.046;2022-12-07T14:45:20;3.20;99.90
16838;DHT22;19510;54.486;9.046;2022-12-07T14:47:46;3.20;99.90
16838;DHT22;19510;54.486;9.046;2022-12-07T14:50:15;3.10;99.90
16838;DHT22;19510;54.486;9.046;2022-12-07T14:52:43;3.20;99.90
16838;DHT22;19510;54.486;9.046;2022-12-07T14:55:20;3.20;99.90
16838;DHT22;19510;54.486;9.046;2022-12-07T14:57:47;3.20;99.90
16838;DHT22;19510;54.486;9.046;2022-12-07T15:00:15;3.10;99.90
16838;DHT22;19510;54.486;9.046;2022-12-07T15:02:41;3.10;99.90
16838;DHT22;19510;54.486;9.046;2022-12-07T15:05:07;3.00;99.90
16838;DHT22;19510;54.486;9.046;2022-12-07T15:07:32;3.00;99.90
16838;DHT22;19510;54.486;9.046;2022-12-07T15:09:58;2.90;99.90
16838;DHT22;19510;54.486;9.046;2022-12-07T15:12:24;2.90;99.90
16838;DHT22;19510;54.486;9.046;2022-12-07T15:14:50;2.90;99.90
16838;DHT22;19510;54.486;9.046;2022-12-07T15:17:16;2.90;99.90
16838;DHT22;19510;54.486;9.046;2022-12-07T15:19:41;2.90;99.90
16838;DHT22;19510;54.486;9.046;2022-12-07T15:22:08;2.90;99.90
16838;DHT22;19510;54.486;9.046;2022-12-07T15:24:37;2.80;99.90
16838;DHT22;19510;54.486;9.046;2022-12-07T15:27:03;2.80;99.90
16838;DHT22;19510;54.486;9.046;2022-12-07T15:29:29;2.80;99.90
16838;DHT22;19510;54.486;9.046;2022-12-07T15:31:55;2.80;99.90
16838;DHT22;19510;54.486;9.046;2022-12-07T15:34:24;2.80;99.90
16838;DHT22;19510;54.486;9.046;2022-12-07T15:36:50;2.80;99.90
16838;DHT22;19510;54.486;9.046;2022-12-07T15:39:16;2.80;99.90
16838;DHT22;19510;54.486;9.046;2022-12-07T15:41:42;2.80;99.90
16838;DHT22;19510;54.486;9.046;2022-12-07T15:44:11;2.80;99.90
16838;DHT22;19510;54.486;9.046;2022-12-07T15:46:55;2.80;99.90
16838;DHT22;19510;54.486;9.046;2022-12-07T15:49:21;2.80;99.90
16838;DHT22;19510;54.486;9.046;2022-12-07T15:51:47;2.80;99.90
16838;DHT22;19510;54.486;9.046;2022-12-07T15:54:20;2.70;99.90
16838;DHT22;19510;54.486;9.046;2022-12-07T15:56:46;2.80;99.90
16838;DHT22;19510;54.486;9.046;2022-12-07T15:59:12;2.80;99.90
16838;DHT22;19510;54.486;9.046;2022-12-07T16:01:37;2.70;99.90
16838;DHT22;19510;54.486;9.046;2022-12-07T16:04:03;2.70;99.90
16838;DHT22;19510;54.486;9.046;2022-12-07T16:06:29;2.70;99.90
16838;DHT22;19510;54.486;9.046;2022-12-07T16:08:55;2.70;99.90
16838;DHT22;19510;54.486;9.046;2022-12-07T16:11:21;2.70;99.90
16838;DHT22;19510;54.486;9.046;2022-12-07T16:13:47;2.70;99.90
16838;DHT22;19510;54.486;9.046;2022-12-07T16:16:14;2.80;99.90
16838;DHT22;19510;54.486;9.046;2022-12-07T16:18:42;2.80;99.90
16838;DHT22;19510;54.486;9.046;2022-12-07T16:21:08;2.80;99.90
16838;DHT22;19510;54.486;9.046;2022-12-07T16:23:34;2.80;99.90
16838;DHT22;19510;54.486;9.046;2022-12-07T16:26:05;2.80;99.90
16838;DHT22;19510;54.486;9.046;2022-12-07T16:28:31;2.80;99.90
16838;DHT22;19510;54.486;9.046;2022-12-07T16:31:02;2.80;99.90
16838;DHT22;19510;54.486;9.046;2022-12-07T16:33:27;2.70;99.90
16838;DHT22;19510;54.486;9.046;2022-12-07T16:35:53;2.70;99.90
16838;DHT22;19510;54.486;9.046;2022-12-07T16:38:21;2.70;99.90
16838;DHT22;19510;54.486;9.046;2022-12-07T16:40:47;2.70;99.90
16838;DHT22;19510;54.486;9.046;2022-12-07T16:43:13;2.70;99.90
16838;DHT22;19510;54.486;9.046;2022-12-07T16:45:39;2.70;99.90
16838;DHT22;19510;54.486;9.046;2022-12-07T16:48:05;2.70;99.90
16838;DHT22;19510;54.486;9.046;2022-12-07T16:50:31;2.70;99.90
16838;DHT22;19510;54.486;9.046;2022-12-07T16:52:59;2.70;99.90
16838;DHT22;19510;54.486;9.046;2022-12-07T16:55:24;2.70;99.90
16838;DHT22;19510;54.486;9.046;2022-12-07T16:57:50;2.70;99.90
16838;DHT22;19510;54.486;9.046;2022-12-07T17:00:16;2.70;99.90
16838;DHT22;19510;54.486;9.046;2022-12-07T17:02:42;2.70;99.90
16838;DHT22;19510;54.486;9.046;2022-12-07T17:05:12;2.70;99.90
16838;DHT22;19510;54.486;9.046;2022-12-07T17:07:38;2.80;99.90
16838;DHT22;19510;54.486;9.046;2022-12-07T17:10:04;2.80;99.90
16838;DHT22;19510;54.486;9.046;2022-12-07T17:12:30;2.80;99.90
16838;DHT22;19510;54.486;9.046;2022-12-07T17:14:56;2.70;99.90
16838;DHT22;19510;54.486;9.046;2022-12-07T17:17:40;2.70;99.90
16838;DHT22;19510;54.486;9.046;2022-12-07T17:20:08;2.80;99.90
16838;DHT22;19510;54.486;9.046;2022-12-07T17:22:34;2.70;99.90
16838;DHT22;19510;54.486;9.046;2022-12-07T17:25:00;2.80;99.90
16838;DHT22;19510;54.486;9.046;2022-12-07T17:27:26;2.70;99.90
16838;DHT22;19510;54.486;9.046;2022-12-07T17:29:54;2.80;99.90
16838;DHT22;19510;54.486;9.046;2022-12-07T17:32:20;2.70;99.90
16838;DHT22;19510;54.486;9.046;2022-12-07T17:34:47;2.70;99.90
16838;DHT22;19510;54.486;9.046;2022-12-07T17:37:13;2.80;99.90
16838;DHT22;19510;54.486;9.046;2022-12-07T17:39:39;2.70;99.90
16838;DHT22;19510;54.486;9.046;2022-12-07T17:42:05;2.80;99.90
16838;DHT22;19510;54.486;9.046;2022-12-07T17:44:49;2.70;99.90
16838;DHT22;19510;54.486;9.046;2022-12-07T17:47:17;2.70;99.90
16838;DHT22;19510;54.486;9.046;2022-12-07T17:49:43;2.70;99.90
16838;DHT22;19510;54.486;9.046;2022-12-07T17:52:11;2.80;99.90
16838;DHT22;19510;54.486;9.046;2022-12-07T17:54:55;2.80;99.90
16838;DHT22;19510;54.486;9.046;2022-12-07T17:57:21;2.80;99.90
16838;DHT22;19510;54.486;9.046;2022-12-07T17:59:49;2.80;99.90
16838;DHT22;19510;54.486;9.046;2022-12-07T18:02:17;2.70;99.90
16838;DHT22;19510;54.486;9.046;2022-12-07T18:04:43;2.70;99.90
16838;DHT22;19510;54.486;9.046;2022-12-07T18:07:10;2.70;99.90
16838;DHT22;19510;54.486;9.046;2022-12-07T18:09:36;2.70;99.90
16838;DHT22;19510;54.486;9.046;2022-12-07T18:12:02;2.70;99.90
16838;DHT22;19510;54.486;9.046;2022-12-07T18:14:28;2.70;99.90
16838;DHT22;19510;54.486;9.046;2022-12-07T18:16:54;2.70;99.90
16838;DHT22;19510;54.486;9.046;2022-12-07T18:19:20;2.80;99.90
16838;DHT22;19510;54.486;9.046;2022-12-07T18:21:46;2.70;99.90
16838;DHT22;19510;54.486;9.046;2022-12-07T18:24:13;2.70;99.90
16838;DHT22;19510;54.486;9.046;2022-12-07T18:26:40;2.80;99.90
16838;DHT22;19510;54.486;9.046;2022-12-07T18:29:07;2.80;99.90
16838;DHT22;19510;54.486;9.046;2022-12-07T18:31:34;2.80;99.90
16838;DHT22;19510;54.486;9.046;2022-12-07T18:34:05;2.80;99.90
16838;DHT22;19510;54.486;9.046;2022-12-07T18:36:33;2.70;99.90
16838;DHT22;19510;54.486;9.046;2022-12-07T18:38:58;2.70;99.90
16838;DHT22;19510;54.486;9.046;2022-12-07T18:41:24;2.70;99.90
16838;DHT22;19510;54.486;9.046;2022-12-07T18:43:50;2.80;99.90
16838;DHT22;19510;54.486;9.046;2022-12-07T18:46:18;2.80;99.90
16838;DHT22;19510;54.486;9.046;2022-12-07T18:48:45;2.70;99.90
16838;DHT22;19510;54.486;9.046;2022-12-07T18:51:17;2.70;99.90
16838;DHT22;19510;54.486;9.046;2022-12-07T18:53:43;2.70;99.90
16838;DHT22;19510;54.486;9.046;2022-12-07T18:58:47;2.70;99.90
16838;DHT22;19510;54.486;9.046;2022-12-07T19:01:34;2.70;99.90
16838;DHT22;19510;54.486;9.046;2022-12-07T19:04:01;2.70;99.90
16838;DHT22;19510;54.486;9.046;2022-12-07T19:06:27;2.80;99.90
16838;DHT22;19510;54.486;9.046;2022-12-07T19:08:53;2.80;99.90
16838;DHT22;19510;54.486;9.046;2022-12-07T19:11:22;2.80;99.90
16838;DHT22;19510;54.486;9.046;2022-12-07T19:14:06;2.80;99.90
16838;DHT22;19510;54.486;9.046;2022-12-07T19:16:32;2.80;99.90
16838;DHT22;19510;54.486;9.046;2022-12-07T19:18:57;2.80;99.90
16838;DHT22;19510;54.486;9.046;2022-12-07T19:21:23;2.80;99.90
16838;DHT22;19510;54.486;9.046;2022-12-07T19:23:49;2.80;99.90
16838;DHT22;19510;54.486;9.046;2022-12-07T19:26:15;2.80;99.90
16838;DHT22;19510;54.486;9.046;2022-12-07T19:28:43;2.80;99.90
16838;DHT22;19510;54.486;9.046;2022-12-07T19:31:10;2.80;99.90
16838;DHT22;19510;54.486;9.046;2022-12-07T19:33:38;2.90;99.90
16838;DHT22;19510;54.486;9.046;2022-12-07T19:36:05;2.80;99.90
16838;DHT22;19510;54.486;9.046;2022-12-07T19:38:31;2.80;99.90
16838;DHT22;19510;54.486;9.046;2022-12-07T19:41:24;2.90;99.90
16838;DHT22;19510;54.486;9.046;2022-12-07T19:44:08;2.80;99.90
16838;DHT22;19510;54.486;9.046;2022-12-07T19:46:36;2.90;99.90
16838;DHT22;19510;54.486;9.046;2022-12-07T19:49:02;2.90;99.90
16838;DHT22;19510;54.486;9.046;2022-12-07T19:51:29;2.90;99.90
16838;DHT22;19510;54.486;9.046;2022-12-07T19:54:01;2.90;99.90
16838;DHT22;19510;54.486;9.046;2022-12-07T19:56:29;2.90;99.90
16838;DHT22;19510;54.486;9.046;2022-12-07T19:58:58;2.90;99.90
16838;DHT22;19510;54.486;9.046;2022-12-07T20:01:24;2.90;99.90
16838;DHT22;19510;54.486;9.046;2022-12-07T20:03:50;2.90;99.90
16838;DHT22;19510;54.486;9.046;2022-12-07T20:06:19;2.90;99.90
16838;DHT22;19510;54.486;9.046;2022-12-07T20:08:48;2.90;99.90
16838;DHT22;19510;54.486;9.046;2022-12-07T20:11:16;2.90;99.90
16838;DHT22;19510;54.486;9.046;2022-12-07T20:14:00;2.90;99.90
16838;DHT22;19510;54.486;9.046;2022-12-07T20:16:29;2.90;99.90
16838;DHT22;19510;54.486;9.046;2022-12-07T20:18:54;2.90;99.90
16838;DHT22;19510;54.486;9.046;2022-12-07T20:21:23;2.90;99.90
16838;DHT22;19510;54.486;9.046;2022-12-07T20:23:49;3.00;99.90
16838;DHT22;19510;54.486;9.046;2022-12-07T20:26:15;2.90;99.90
16838;DHT22;19510;54.486;9.046;2022-12-07T20:28:41;3.00;99.90
16838;DHT22;19510;54.486;9.046;2022-12-07T20:31:12;3.00;99.90
16838;DHT22;19510;54.486;9.046;2022-12-07T20:33:38;3.00;99.90
16838;DHT22;19510;54.486;9.046;2022-12-07T20:36:06;3.00;99.90
16838;DHT22;19510;54.486;9.046;2022-12-07T20:38:34;3.00;99.90
16838;DHT22;19510;54.486;9.046;2022-12-07T20:41:02;2.90;99.90
16838;DHT22;19510;54.486;9.046;2022-12-07T20:43:29;3.00;99.90
16838;DHT22;19510;54.486;9.046;2022-12-07T20:45:55;3.00;99.90
16838;DHT22;19510;54.486;9.046;2022-12-07T20:48:22;2.90;99.90
16838;DHT22;19510;54.486;9.046;2022-12-07T20:50:48;3.00;99.90
16838;DHT22;19510;54.486;9.046;2022-12-07T20:53:14;2.90;99.90
16838;DHT22;19510;54.486;9.046;2022-12-07T20:55:40;2.90;99.90
16838;DHT22;19510;54.486;9.046;2022-12-07T20:58:06;2.90;99.90
16838;DHT22;19510;54.486;9.046;2022-12-07T21:00:32;2.90;99.90
16838;DHT22;19510;54.486;9.046;2022-12-07T21:02:58;2.80;99.90
16838;DHT22;19510;54.486;9.046;2022-12-07T21:05:26;2.80;99.90
16838;DHT22;19510;54.486;9.046;2022-12-07T21:07:52;2.80;99.90
16838;DHT22;19510;54.486;9.046;2022-12-07T21:10:18;2.70;99.90
16838;DHT22;19510;54.486;9.046;2022-12-07T21:12:43;2.70;99.90
16838;DHT22;19510;54.486;9.046;2022-12-07T21:15:09;2.70;99.90
16838;DHT22;19510;54.486;9.046;2022-12-07T21:17:35;2.70;99.90
16838;DHT22;19510;54.486;9.046;2022-12-07T21:20:01;2.70;99.90
16838;DHT22;19510;54.486;9.046;2022-12-07T21:22:27;2.70;99.90
16838;DHT22;19510;54.486;9.046;2022-12-07T21:24:52;2.60;99.90
16838;DHT22;19510;54.486;9.046;2022-12-07T21:27:18;2.60;99.90
16838;DHT22;19510;54.486;9.046;2022-12-07T21:29:44;2.60;99.90
16838;DHT22;19510;54.486;9.046;2022-12-07T21:32:10;2.60;99.90
16838;DHT22;19510;54.486;9.046;2022-12-07T21:34:35;2.60;99.90
16838;DHT22;19510;54.486;9.046;2022-12-07T21:37:01;2.60;99.90
16838;DHT22;19510;54.486;9.046;2022-12-07T21:39:29;2.60;99.90
16838;DHT22;19510;54.486;9.046;2022-12-07T21:41:57;2.70;99.90
16838;DHT22;19510;54.486;9.046;2022-12-07T21:44:23;2.60;99.90
16838;DHT22;19510;54.486;9.046;2022-12-07T21:46:49;2.60;99.90
16838;DHT22;19510;54.486;9.046;2022-12-07T21:49:14;2.60;99.90
16838;DHT22;19510;54.486;9.046;2022-12-07T21:51:41;2.60;99.90
16838;DHT22;19510;54.486;9.046;2022-12-07T21:54:08;2.60;99.90
16838;DHT22;19510;54.486;9.046;2022-12-07T21:56:38;2.70;99.90
16838;DHT22;19510;54.486;9.046;2022-12-07T21:59:13;2.60;99.90
16838;DHT22;19510;54.486;9.046;2022-12-07T22:01:41;2.70;99.90
16838;DHT22;19510;54.486;9.046;2022-12-07T22:04:17;2.60;99.90
16838;DHT22;19510;54.486;9.046;2022-12-07T22:06:44;2.60;99.90
16838;DHT22;19510;54.486;9.046;2022-12-07T22:09:10;2.60;99.90
16838;DHT22;19510;54.486;9.046;2022-12-07T22:11:36;2.60;99.90
16838;DHT22;19510;54.486;9.046;2022-12-07T22:14:02;2.60;99.90
16838;DHT22;19510;54.486;9.046;2022-12-07T22:16:46;2.60;99.90
16838;DHT22;19510;54.486;9.046;2022-12-07T22:19:12;2.60;99.90
16838;DHT22;19510;54.486;9.046;2022-12-07T22:21:38;2.60;99.90
16838;DHT22;19510;54.486;9.046;2022-12-07T22:24:04;2.60;99.90
16838;DHT22;19510;54.486;9.046;2022-12-07T22:26:33;2.60;99.90
16838;DHT22;19510;54.486;9.046;2022-12-07T22:28:59;2.60;99.90
16838;DHT22;19510;54.486;9.046;2022-12-07T22:31:25;2.60;99.90
16838;DHT22;19510;54.486;9.046;2022-12-07T22:33:51;2.60;99.90
16838;DHT22;19510;54.486;9.046;2022-12-07T22:36:17;2.60;99.90
16838;DHT22;19510;54.486;9.046;2022-12-07T22:38:44;2.60;99.90
16838;DHT22;19510;54.486;9.046;2022-12-07T22:43:38;2.60;99.90
16838;DHT22;19510;54.486;9.046;2022-12-07T22:46:06;2.60;99.90
16838;DHT22;19510;54.486;9.046;2022-12-07T22:48:32;2.60;99.90
16838;DHT22;19510;54.486;9.046;2022-12-07T22:50:58;2.60;99.90
16838;DHT22;19510;54.486;9.046;2022-12-07T22:53:25;2.60;99.90
16838;DHT22;19510;54.486;9.046;2022-12-07T22:55:51;2.60;99.90
16838;DHT22;19510;54.486;9.046;2022-12-07T22:58:17;2.60;99.90
16838;DHT22;19510;54.486;9.046;2022-12-07T23:00:46;2.60;99.90
16838;DHT22;19510;54.486;9.046;2022-12-07T23:03:16;2.60;99.90
16838;DHT22;19510;54.486;9.046;2022-12-07T23:05:46;2.60;99.90
16838;DHT22;19510;54.486;9.046;2022-12-07T23:08:13;2.60;99.90
16838;DHT22;19510;54.486;9.046;2022-12-07T23:10:46;2.60;99.90
16838;DHT22;19510;54.486;9.046;2022-12-07T23:13:14;2.60;99.90
16838;DHT22;19510;54.486;9.046;2022-12-07T23:16:12;2.60;99.90
16838;DHT22;19510;54.486;9.046;2022-12-07T23:18:39;2.60;99.90
16838;DHT22;19510;54.486;9.046;2022-12-07T23:21:08;2.60;99.90
16838;DHT22;19510;54.486;9.046;2022-12-07T23:23:37;2.60;99.90
16838;DHT22;19510;54.486;9.046;2022-12-07T23:26:07;2.60;99.90
16838;DHT22;19510;54.486;9.046;2022-12-07T23:28:36;2.60;99.90
16838;DHT22;19510;54.486;9.046;2022-12-07T23:31:07;2.60;99.90
16838;DHT22;19510;54.486;9.046;2022-12-07T23:33:33;2.50;99.90
16838;DHT22;19510;54.486;9.046;2022-12-07T23:36:25;2.60;99.90
16838;DHT22;19510;54.486;9.046;2022-12-07T23:38:53;2.50;99.90
16838;DHT22;19510;54.486;9.046;2022-12-07T23:41:24;2.50;99.90
16838;DHT22;19510;54.486;9.046;2022-12-07T23:43:50;2.50;99.90
16838;DHT22;19510;54.486;9.046;2022-12-07T23:46:22;2.60;99.90
16838;DHT22;19510;54.486;9.046;2022-12-07T23:48:51;2.60;99.90
16838;DHT22;19510;54.486;9.046;2022-12-07T23:51:20;2.50;99.90
16838;DHT22;19510;54.486;9.046;2022-12-07T23:53:48;2.60;99.90
16838;DHT22;19510;54.486;9.046;2022-12-07T23:56:17;2.50;99.90
16838;DHT22;19510;54.486;9.046;2022-12-07T23:58:44;2.50;99.90
